createdAt,value
2018-06-09T00:00:48.026Z,21.12
2018-06-09T00:03:16.599Z,21.13
2018-06-09T00:05:45.251Z,21.13
2018-06-09T00:08:13.863Z,21.16
2018-06-09T00:10:42.481Z,21.18
2018-06-09T00:13:11.060Z,21.17
2018-06-09T00:15:39.670Z,21.16
2018-06-09T00:18:08.289Z,21.11
2018-06-09T00:20:36.873Z,21.07
2018-06-09T00:23:05.453Z,21.01
2018-06-09T00:25:48.949Z,20.87
2018-06-09T00:28:17.594Z,20.88
2018-06-09T00:30:46.171Z,20.88
2018-06-09T00:33:14.791Z,20.92
2018-06-09T00:35:43.401Z,21.04
2018-06-09T00:38:12.031Z,21.03
2018-06-09T00:40:40.646Z,21.02
2018-06-09T00:43:09.341Z,21.00
2018-06-09T00:45:38.030Z,20.99
2018-06-09T00:48:06.713Z,20.97
2018-06-09T00:50:35.350Z,20.97
2018-06-09T00:53:03.936Z,20.92
2018-06-09T00:55:32.533Z,20.86
2018-06-09T00:58:01.112Z,20.82
2018-06-09T01:00:29.754Z,20.82
2018-06-09T01:02:58.342Z,20.81
2018-06-09T01:05:26.928Z,20.70
2018-06-09T01:07:55.553Z,20.65
2018-06-09T01:10:25.074Z,20.69
2018-06-09T01:12:53.653Z,20.74
2018-06-09T01:15:22.277Z,20.74
2018-06-09T01:17:50.857Z,20.80
2018-06-09T01:20:19.518Z,20.88
2018-06-09T01:22:48.109Z,20.89
2018-06-09T01:25:16.739Z,20.86
2018-06-09T01:27:45.329Z,20.80
2018-06-09T01:30:13.981Z,20.71
2018-06-09T01:32:42.584Z,20.71
2018-06-09T01:35:11.204Z,20.74
2018-06-09T01:37:39.799Z,20.79
2018-06-09T01:40:08.410Z,20.79
2018-06-09T01:42:37.037Z,20.81
2018-06-09T01:45:05.728Z,20.90
2018-06-09T01:47:34.357Z,20.90
2018-06-09T01:50:02.974Z,20.88
2018-06-09T01:52:31.569Z,20.87
2018-06-09T01:55:00.242Z,20.88
2018-06-09T01:57:28.873Z,20.90
2018-06-09T01:59:57.465Z,20.86
2018-06-09T02:02:26.071Z,20.80
2018-06-09T02:04:54.967Z,20.76
2018-06-09T02:07:23.629Z,20.69
2018-06-09T02:09:52.214Z,20.61
2018-06-09T02:12:20.867Z,20.52
2018-06-09T02:14:49.505Z,20.38
2018-06-09T02:17:18.085Z,20.32
2018-06-09T02:19:46.709Z,20.26
2018-06-09T02:22:15.324Z,20.10
2018-06-09T02:24:43.952Z,20.05
2018-06-09T02:27:12.509Z,20.00
2018-06-09T02:29:41.105Z,19.91
2018-06-09T02:32:09.751Z,19.89
2018-06-09T02:34:38.398Z,19.86
2018-06-09T02:37:07.006Z,19.79
2018-06-09T02:39:35.608Z,19.71
2018-06-09T02:42:04.250Z,19.55
2018-06-09T02:44:32.836Z,19.44
2018-06-09T02:47:01.441Z,19.46
2018-06-09T02:49:30.014Z,19.47
2018-06-09T02:51:58.613Z,19.47
2018-06-09T02:54:27.317Z,19.38
2018-06-09T02:56:55.922Z,19.38
2018-06-09T02:59:24.546Z,19.32
2018-06-09T03:01:53.933Z,19.38
2018-06-09T03:04:22.510Z,19.36
2018-06-09T03:06:51.142Z,19.34
2018-06-09T03:09:19.725Z,19.31
2018-06-09T03:11:48.299Z,19.30
2018-06-09T03:14:16.927Z,19.35
2018-06-09T03:16:45.541Z,19.37
2018-06-09T03:19:14.163Z,19.36
2018-06-09T03:21:42.741Z,19.38
2018-06-09T03:24:11.357Z,19.40
2018-06-09T03:26:39.954Z,19.41
2018-06-09T03:29:08.587Z,19.39
2018-06-09T03:31:37.186Z,19.36
2018-06-09T03:34:05.865Z,18.24
2018-06-09T03:36:34.509Z,19.39
2018-06-09T03:39:03.235Z,19.41
2018-06-09T03:41:31.855Z,18.50
2018-06-09T03:44:00.472Z,19.34
2018-06-09T03:46:29.058Z,19.41
2018-06-09T03:48:57.707Z,19.46
2018-06-09T03:51:26.402Z,19.39
2018-06-09T03:53:55.023Z,19.42
2018-06-09T03:56:23.648Z,19.48
2018-06-09T03:58:52.248Z,19.69
2018-06-09T04:01:20.855Z,19.82
2018-06-09T04:03:49.436Z,20.00
2018-06-09T04:06:18.046Z,19.94
2018-06-09T04:08:46.650Z,19.88
2018-06-09T04:11:15.245Z,19.87
2018-06-09T04:13:43.881Z,19.81
2018-06-09T04:16:12.465Z,19.85
2018-06-09T04:18:41.099Z,19.82
2018-06-09T04:21:09.695Z,19.91
2018-06-09T04:23:38.326Z,19.96
2018-06-09T04:26:06.953Z,20.05
2018-06-09T04:28:35.559Z,20.14
2018-06-09T04:31:04.203Z,19.66
2018-06-09T04:33:32.847Z,20.21
2018-06-09T04:36:01.449Z,20.31
2018-06-09T04:38:30.061Z,20.27
2018-06-09T04:40:58.650Z,20.32
2018-06-09T04:43:27.221Z,20.36
2018-06-09T04:45:55.818Z,20.45
2018-06-09T04:48:24.441Z,20.50
2018-06-09T04:50:53.025Z,20.65
2018-06-09T04:53:21.693Z,20.67
2018-06-09T04:55:51.082Z,20.74
2018-06-09T04:58:19.681Z,20.67
2018-06-09T05:00:48.297Z,20.69
2018-06-09T05:03:16.851Z,20.65
2018-06-09T05:05:45.446Z,20.62
2018-06-09T05:08:14.050Z,20.54
2018-06-09T05:10:42.770Z,20.66
2018-06-09T05:13:11.383Z,20.76
2018-06-09T05:15:40.029Z,20.78
2018-06-09T05:18:08.641Z,20.92
2018-06-09T05:20:37.224Z,21.07
2018-06-09T05:23:05.890Z,21.20
2018-06-09T05:25:34.510Z,21.25
2018-06-09T05:28:03.485Z,21.37
2018-06-09T05:30:32.078Z,21.52
2018-06-09T05:33:00.772Z,21.54
2018-06-09T05:35:29.435Z,21.53
2018-06-09T05:37:58.096Z,21.72
2018-06-09T05:40:26.699Z,21.72
2018-06-09T05:42:55.361Z,21.65
2018-06-09T05:45:23.932Z,21.80
2018-06-09T05:47:52.558Z,21.73
2018-06-09T05:50:21.167Z,21.83
2018-06-09T05:52:49.853Z,21.95
2018-06-09T05:55:18.525Z,22.07
2018-06-09T05:57:47.177Z,22.21
2018-06-09T06:00:15.807Z,22.20
2018-06-09T06:02:44.433Z,22.05
2018-06-09T06:05:13.066Z,22.10
2018-06-09T06:07:41.663Z,22.24
2018-06-09T06:10:10.326Z,22.50
2018-06-09T06:12:38.917Z,22.92
2018-06-09T06:15:07.561Z,23.48
2018-06-09T06:17:36.189Z,24.22
2018-06-09T06:20:04.883Z,24.61
2018-06-09T06:22:33.514Z,24.95
2018-06-09T06:25:02.119Z,24.94
2018-06-09T06:27:30.691Z,25.45
2018-06-09T06:29:59.250Z,26.07
2018-06-09T06:32:27.843Z,25.82
2018-06-09T06:34:56.475Z,26.53
2018-06-09T06:37:25.073Z,26.74
2018-06-09T06:39:53.703Z,26.60
2018-06-09T06:42:22.315Z,26.57
2018-06-09T06:44:50.918Z,26.77
2018-06-09T06:47:19.609Z,27.29
2018-06-09T06:49:48.139Z,26.91
2018-06-09T06:52:16.782Z,27.61
2018-06-09T06:54:45.385Z,28.46
2018-06-09T06:57:14.015Z,28.01
2018-06-09T06:59:42.558Z,27.90
2018-06-09T07:02:11.214Z,28.00
2018-06-09T07:04:39.790Z,28.21
2018-06-09T07:07:08.315Z,27.96
2018-06-09T07:09:36.891Z,27.35
2018-06-09T07:12:05.488Z,27.46
2018-06-09T07:14:34.063Z,28.01
2018-06-09T07:17:02.658Z,28.34
2018-06-09T07:19:31.542Z,27.85
2018-06-09T07:22:00.501Z,27.88
2018-06-09T07:24:29.155Z,27.87
2018-06-09T07:26:58.075Z,28.07
2018-06-09T07:29:26.659Z,27.83
2018-06-09T07:31:55.268Z,27.42
2018-06-09T07:34:23.858Z,27.34
2018-06-09T07:36:52.418Z,27.58
2018-06-09T07:39:21.071Z,28.29
2018-06-09T07:41:49.718Z,27.76
2018-06-09T07:44:18.343Z,26.84
2018-06-09T07:46:46.989Z,26.35
2018-06-09T07:49:15.586Z,26.33
2018-06-09T07:51:44.180Z,27.06
2018-06-09T07:54:12.757Z,27.28
2018-06-09T07:56:41.344Z,26.59
2018-06-09T07:59:09.971Z,26.59
2018-06-09T08:01:38.550Z,26.55
2018-06-09T08:04:07.258Z,26.78
2018-06-09T08:06:35.802Z,27.09
2018-06-09T08:09:05.591Z,26.50
2018-06-09T08:11:34.195Z,26.91
2018-06-09T08:14:04.169Z,26.99
2018-06-09T08:16:32.793Z,26.60
2018-06-09T08:19:01.406Z,26.93
2018-06-09T08:21:30.027Z,27.20
2018-06-09T08:23:58.582Z,27.17
2018-06-09T08:26:27.167Z,27.09
2018-06-09T08:28:56.165Z,26.86
2018-06-09T08:31:24.773Z,27.42
2018-06-09T08:33:53.347Z,28.01
2018-06-09T08:36:22.010Z,28.94
2018-06-09T08:38:50.587Z,28.79
2018-06-09T08:41:19.208Z,29.47
2018-06-09T08:43:47.788Z,28.93
2018-06-09T08:46:16.395Z,29.52
2018-06-09T08:48:45.233Z,29.24
2018-06-09T08:51:13.817Z,29.12
2018-06-09T08:53:42.576Z,29.70
2018-06-09T08:56:11.200Z,29.24
2018-06-09T08:58:39.797Z,29.58
2018-06-09T09:01:08.408Z,29.39
2018-06-09T09:03:37.042Z,29.81
2018-06-09T09:06:05.598Z,30.30
2018-06-09T09:08:34.170Z,30.32
2018-06-09T09:11:02.749Z,30.20
2018-06-09T09:13:31.403Z,29.18
2018-06-09T09:16:00.478Z,29.45
2018-06-09T09:18:29.083Z,29.18
2018-06-09T09:20:57.653Z,29.48
2018-06-09T09:23:26.242Z,29.04
2018-06-09T09:25:54.828Z,29.24
2018-06-09T09:28:23.391Z,29.18
2018-06-09T09:30:51.970Z,28.95
2018-06-09T09:33:20.935Z,29.98
2018-06-09T09:35:49.555Z,29.92
2018-06-09T09:38:18.174Z,29.69
2018-06-09T09:40:46.783Z,30.30
2018-06-09T09:43:15.358Z,29.97
2018-06-09T09:45:43.948Z,30.18
2018-06-09T09:48:12.534Z,30.64
2018-06-09T09:50:41.151Z,30.79
2018-06-09T09:53:09.747Z,30.30
2018-06-09T09:55:38.306Z,28.80
2018-06-09T09:58:06.876Z,28.57
2018-06-09T10:00:37.545Z,29.64
2018-06-09T10:03:06.503Z,29.68
2018-06-09T10:05:35.389Z,29.88
2018-06-09T10:08:04.596Z,29.33
2018-06-09T10:10:33.203Z,28.90
2018-06-09T10:13:02.135Z,29.01
2018-06-09T10:15:30.719Z,29.45
2018-06-09T10:17:59.285Z,30.02
2018-06-09T10:20:27.869Z,30.05
2018-06-09T10:22:56.816Z,29.31
2018-06-09T10:25:25.395Z,30.10
2018-06-09T10:27:54.351Z,30.29
2018-06-09T10:30:22.947Z,30.51
2018-06-09T10:32:51.559Z,30.71
2018-06-09T10:35:20.245Z,30.78
2018-06-09T10:37:48.838Z,30.54
2018-06-09T10:40:17.437Z,30.86
2018-06-09T10:42:46.234Z,31.12
2018-06-09T10:45:14.876Z,31.18
2018-06-09T10:47:43.499Z,30.93
2018-06-09T10:50:12.085Z,30.33
2018-06-09T10:52:40.639Z,30.78
2018-06-09T10:55:09.227Z,31.77
2018-06-09T10:57:37.838Z,32.21
2018-06-09T11:00:07.083Z,31.62
2018-06-09T11:02:35.695Z,31.13
2018-06-09T11:05:04.302Z,30.46
2018-06-09T11:07:32.918Z,30.32
2018-06-09T11:10:01.555Z,30.55
2018-06-09T11:12:30.105Z,29.40
2018-06-09T11:14:58.675Z,28.67
2018-06-09T11:17:27.327Z,28.54
2018-06-09T11:19:56.255Z,28.18
2018-06-09T11:22:24.928Z,27.90
2018-06-09T11:24:53.630Z,28.22
2018-06-09T11:27:22.319Z,27.89
2018-06-09T11:29:50.886Z,27.90
2018-06-09T11:32:19.492Z,27.82
2018-06-09T11:34:48.082Z,27.87
2018-06-09T11:37:16.690Z,28.18
2018-06-09T11:39:45.278Z,27.95
2018-06-09T11:42:13.862Z,27.76
2018-06-09T11:44:42.468Z,27.67
2018-06-09T11:47:11.089Z,27.59
2018-06-09T11:49:39.713Z,27.57
2018-06-09T11:52:08.324Z,27.69
2018-06-09T11:54:36.876Z,27.59
2018-06-09T11:57:05.447Z,27.52
2018-06-09T11:59:34.026Z,27.48
2018-06-09T12:02:02.653Z,27.38
2018-06-09T12:04:31.221Z,27.23
2018-06-09T12:06:59.843Z,27.20
2018-06-09T12:09:28.465Z,27.08
2018-06-09T12:11:57.082Z,26.84
2018-06-09T12:14:25.654Z,26.91
2018-06-09T12:16:54.212Z,27.09
2018-06-09T12:19:22.824Z,27.11
2018-06-09T12:21:51.425Z,26.93
2018-06-09T12:24:20.052Z,26.96
2018-06-09T12:26:48.708Z,26.43
2018-06-09T12:29:17.328Z,26.09
2018-06-09T12:31:45.918Z,25.81
2018-06-09T12:34:14.514Z,25.61
2018-06-09T12:36:43.105Z,24.88
2018-06-09T12:39:11.708Z,23.32
2018-06-09T12:41:40.299Z,22.10
2018-06-09T12:44:08.995Z,21.18
2018-06-09T12:46:37.641Z,20.89
2018-06-09T12:49:06.255Z,20.76
2018-06-09T12:51:34.853Z,20.60
2018-06-09T12:54:03.483Z,20.63
2018-06-09T12:56:32.098Z,20.72
2018-06-09T12:59:00.718Z,20.71
2018-06-09T13:01:29.351Z,20.62
2018-06-09T13:03:57.962Z,20.61
2018-06-09T13:06:26.818Z,20.60
2018-06-09T13:08:55.414Z,20.61
2018-06-09T13:11:24.594Z,20.77
2018-06-09T13:13:53.179Z,20.86
2018-06-09T13:16:21.769Z,20.84
2018-06-09T13:18:50.364Z,20.84
2018-06-09T13:21:18.997Z,20.93
2018-06-09T13:23:47.538Z,20.69
2018-06-09T13:26:16.209Z,20.83
2018-06-09T13:28:44.822Z,21.48
2018-06-09T13:31:13.439Z,21.59
2018-06-09T13:33:42.088Z,21.12
2018-06-09T13:36:10.733Z,20.82
2018-06-09T13:38:39.657Z,20.66
2018-06-09T13:41:08.226Z,20.41
2018-06-09T13:43:36.769Z,20.39
2018-06-09T13:46:05.342Z,20.43
2018-06-09T13:48:33.921Z,20.46
2018-06-09T13:51:02.465Z,20.00
2018-06-09T13:53:31.101Z,20.35
2018-06-09T13:55:59.675Z,21.11
2018-06-09T13:58:28.291Z,21.37
2018-06-09T14:00:56.915Z,21.53
2018-06-09T14:03:25.670Z,21.64
2018-06-09T14:05:54.295Z,21.79
2018-06-09T14:08:22.892Z,22.05
2018-06-09T14:10:51.530Z,22.55
2018-06-09T14:13:20.504Z,23.02
2018-06-09T14:15:49.104Z,23.47
2018-06-09T14:18:18.019Z,23.88
2018-06-09T14:20:46.617Z,24.12
2018-06-09T14:23:15.191Z,24.52
2018-06-09T14:25:43.835Z,24.65
2018-06-09T14:28:12.360Z,24.66
2018-06-09T14:30:41.033Z,24.78
2018-06-09T14:33:09.619Z,24.81
2018-06-09T14:35:38.205Z,24.91
2018-06-09T14:38:06.789Z,24.79
2018-06-09T14:40:35.376Z,24.74
2018-06-09T14:43:04.045Z,24.71
2018-06-09T14:45:32.684Z,24.71
2018-06-09T14:48:01.230Z,24.65
2018-06-09T14:50:29.940Z,24.59
2018-06-09T14:52:58.521Z,24.54
2018-06-09T14:55:27.115Z,24.52
2018-06-09T14:57:55.786Z,24.55
2018-06-09T15:00:25.340Z,24.54
2018-06-09T15:02:53.950Z,24.54
2018-06-09T15:05:22.661Z,24.55
2018-06-09T15:07:51.234Z,24.55
2018-06-09T15:10:19.859Z,24.49
2018-06-09T15:12:48.786Z,24.41
2018-06-09T15:15:17.519Z,24.39
2018-06-09T15:17:46.144Z,24.36
2018-06-09T15:20:15.174Z,24.40
2018-06-09T15:22:44.017Z,24.51
2018-06-09T15:25:12.491Z,24.58
2018-06-09T15:27:41.118Z,24.59
2018-06-09T15:30:09.814Z,23.89
2018-06-09T15:32:38.497Z,23.35
2018-06-09T15:35:07.194Z,22.39
2018-06-09T15:37:35.843Z,22.77
2018-06-09T15:40:05.137Z,22.47
2018-06-09T15:42:33.774Z,22.22
2018-06-09T15:45:02.347Z,21.97
2018-06-09T15:47:30.967Z,21.62
2018-06-09T15:49:59.545Z,21.32
2018-06-09T15:52:28.142Z,21.04
2018-06-09T15:54:56.767Z,20.58
2018-06-09T15:57:26.131Z,20.19
2018-06-09T15:59:54.825Z,20.03
2018-06-09T16:02:23.466Z,20.01
2018-06-09T16:04:52.019Z,20.01
2018-06-09T16:07:20.622Z,19.82
2018-06-09T16:09:49.240Z,19.75
2018-06-09T16:12:17.825Z,19.78
2018-06-09T16:14:46.460Z,19.84
2018-06-09T16:17:15.041Z,19.90
2018-06-09T16:19:43.646Z,19.87
2018-06-09T16:22:12.235Z,19.75
2018-06-09T16:24:40.875Z,19.85
2018-06-09T16:27:09.510Z,20.07
2018-06-09T16:29:38.142Z,20.28
2018-06-09T16:32:06.719Z,20.34
2018-06-09T16:34:35.299Z,20.36
2018-06-09T16:37:03.892Z,20.41
2018-06-09T16:39:32.605Z,20.42
2018-06-09T16:42:01.231Z,20.42
2018-06-09T16:44:29.786Z,20.49
2018-06-09T16:46:58.386Z,20.54
2018-06-09T16:49:26.970Z,20.63
2018-06-09T16:51:55.549Z,20.77
2018-06-09T16:54:24.119Z,20.90
2018-06-09T16:56:52.650Z,20.93
2018-06-09T16:59:21.302Z,20.97
2018-06-09T17:01:49.907Z,21.01
2018-06-09T17:04:18.502Z,21.03
2018-06-09T17:06:47.081Z,21.08
2018-06-09T17:09:15.741Z,21.12
2018-06-09T17:11:44.425Z,21.11
2018-06-09T17:14:13.025Z,21.17
2018-06-09T17:16:41.610Z,21.29
2018-06-09T17:19:10.193Z,21.30
2018-06-09T17:21:38.863Z,21.28
2018-06-09T17:24:07.474Z,21.25
2018-06-09T17:26:36.082Z,21.29
2018-06-09T17:29:04.671Z,21.27
2018-06-09T17:31:33.239Z,21.24
2018-06-09T17:36:29.401Z,21.20
2018-06-09T17:38:57.986Z,21.26
2018-06-09T17:41:26.554Z,21.34
2018-06-09T17:43:55.172Z,21.36
2018-06-09T17:46:23.789Z,21.41
2018-06-09T17:48:52.330Z,21.37
2018-06-09T17:51:20.919Z,21.36
2018-06-09T17:53:49.568Z,21.46
2018-06-09T17:56:18.154Z,21.35
2018-06-09T17:58:46.729Z,21.13
2018-06-09T18:01:15.922Z,20.99
2018-06-09T18:03:44.562Z,21.00
2018-06-09T18:06:13.160Z,20.92
2018-06-09T18:08:41.799Z,20.90
2018-06-09T18:11:10.374Z,20.84
2018-06-09T18:13:38.991Z,20.79
2018-06-09T18:16:07.610Z,20.85
2018-06-09T18:18:36.241Z,20.89
2018-06-09T18:21:04.845Z,21.03
2018-06-09T18:23:33.407Z,21.06
2018-06-09T18:26:02.041Z,21.06
2018-06-09T18:28:30.630Z,20.99
2018-06-09T18:30:59.314Z,21.01
2018-06-09T18:33:27.894Z,20.94
2018-06-09T18:35:56.462Z,20.89
2018-06-09T18:38:25.088Z,21.04
2018-06-09T18:40:53.747Z,21.13
2018-06-09T18:43:22.358Z,20.94
2018-06-09T18:45:51.003Z,20.88
2018-06-09T18:48:19.564Z,20.87
2018-06-09T18:50:48.228Z,20.76
2018-06-09T18:53:16.833Z,20.78
2018-06-09T18:55:45.451Z,20.85
2018-06-09T18:58:14.009Z,20.85
2018-06-09T19:00:42.683Z,20.97
2018-06-09T19:03:11.279Z,20.91
2018-06-09T19:05:39.866Z,20.91
2018-06-09T19:08:09.154Z,20.89
2018-06-09T19:10:37.718Z,20.70
2018-06-09T19:13:06.282Z,20.51
2018-06-09T19:15:34.846Z,20.26
2018-06-09T19:18:04.551Z,20.13
2018-06-09T19:20:33.131Z,20.08
2018-06-09T19:23:01.720Z,20.01
2018-06-09T19:25:30.328Z,19.93
2018-06-09T19:27:58.926Z,19.78
2018-06-09T19:30:27.844Z,19.63
2018-06-09T19:32:56.423Z,19.47
2018-06-09T19:35:24.988Z,19.37
2018-06-09T19:37:53.563Z,19.32
2018-06-09T19:40:22.202Z,19.35
2018-06-09T19:42:50.782Z,19.28
2018-06-09T19:45:19.379Z,19.22
2018-06-09T19:47:47.973Z,19.22
2018-06-09T19:50:16.583Z,19.12
2018-06-09T19:52:45.326Z,19.08
2018-06-09T19:55:14.035Z,19.01
2018-06-09T19:57:42.612Z,18.96
2018-06-09T20:00:11.289Z,18.97
2018-06-09T20:02:39.908Z,18.94
2018-06-09T20:05:08.504Z,18.92
2018-06-09T20:07:37.105Z,18.78
2018-06-09T20:10:05.800Z,18.78
2018-06-09T20:12:34.397Z,18.80
2018-06-09T20:15:03.230Z,18.79
2018-06-09T20:17:31.832Z,18.79
2018-06-09T20:20:00.651Z,18.82
2018-06-09T20:22:29.613Z,18.88
2018-06-09T20:24:58.321Z,19.03
2018-06-09T20:27:26.903Z,19.16
2018-06-09T20:29:55.714Z,19.17
2018-06-09T20:32:24.348Z,19.18
2018-06-09T20:34:52.962Z,19.06
2018-06-09T20:37:21.641Z,18.99
2018-06-09T20:39:50.226Z,18.99
2018-06-09T20:42:18.972Z,18.97
2018-06-09T20:44:47.625Z,18.88
2018-06-09T20:47:16.275Z,18.94
2018-06-09T20:49:44.983Z,19.00
2018-06-09T20:52:13.594Z,19.09
2018-06-09T20:54:42.298Z,19.08
2018-06-09T20:57:10.908Z,19.02
2018-06-09T20:59:39.487Z,19.04
2018-06-09T21:02:08.091Z,19.03
2018-06-09T21:04:36.714Z,18.99
2018-06-09T21:07:05.453Z,19.01
2018-06-09T21:09:34.038Z,19.00
2018-06-09T21:12:02.606Z,19.07
2018-06-09T21:14:31.283Z,19.11
2018-06-09T21:16:59.879Z,19.09
2018-06-09T21:19:28.464Z,19.08
2018-06-09T21:21:57.047Z,18.90
2018-06-09T21:24:25.688Z,18.80
2018-06-09T21:26:59.292Z,18.93
2018-06-09T21:29:33.992Z,19.14
2018-06-09T21:32:07.901Z,19.19
2018-06-09T21:34:52.966Z,19.29
2018-06-09T21:37:26.642Z,19.13
2018-06-09T21:40:00.360Z,18.98
2018-06-09T21:42:34.074Z,18.91
2018-06-09T21:45:08.326Z,19.04
2018-06-09T21:47:36.930Z,19.19
2018-06-09T21:50:05.688Z,19.23
2018-06-09T21:52:34.301Z,19.04
2018-06-09T21:55:02.913Z,19.11
2018-06-09T21:57:31.642Z,19.09
2018-06-09T22:00:00.224Z,19.10
2018-06-09T22:02:28.795Z,19.17
2018-06-09T22:04:57.374Z,19.15
2018-06-09T22:07:25.958Z,19.15
2018-06-09T22:09:54.655Z,19.11
2018-06-09T22:12:23.280Z,18.99
2018-06-09T22:14:51.858Z,18.98
2018-06-09T22:17:20.414Z,19.05
2018-06-09T22:19:49.103Z,19.04
2018-06-09T22:22:17.671Z,18.98
2018-06-09T22:24:46.268Z,18.83
2018-06-09T22:27:15.560Z,18.80
2018-06-09T22:29:44.139Z,18.86
2018-06-09T22:32:12.741Z,18.82
2018-06-09T22:34:41.329Z,18.72
2018-06-09T22:37:09.951Z,18.76
2018-06-09T22:39:38.578Z,18.79
2018-06-09T22:42:07.170Z,18.84
2018-06-09T22:44:35.735Z,18.94
2018-06-09T22:47:04.346Z,19.09
2018-06-09T22:49:32.935Z,19.26
2018-06-09T22:52:01.514Z,19.32
2018-06-09T22:54:30.063Z,19.57
2018-06-09T22:56:58.747Z,19.58
2018-06-09T22:59:27.320Z,19.52
2018-06-09T23:01:55.874Z,19.37
2018-06-09T23:04:24.556Z,19.48
2018-06-09T23:06:53.151Z,19.55
2018-06-09T23:09:21.814Z,19.32
2018-06-09T23:11:50.419Z,19.12
2018-06-09T23:14:18.982Z,19.07
2018-06-09T23:16:47.604Z,19.30
2018-06-09T23:19:16.261Z,19.69
2018-06-09T23:21:44.810Z,19.73
2018-06-09T23:24:13.386Z,19.54
2018-06-09T23:26:41.983Z,19.50
2018-06-09T23:29:10.563Z,19.47
2018-06-09T23:31:39.111Z,19.45
2018-06-09T23:34:07.716Z,19.64
2018-06-09T23:36:36.275Z,19.85
2018-06-09T23:39:06.354Z,19.80
2018-06-09T23:41:34.941Z,19.84
2018-06-09T23:44:03.533Z,19.75
2018-06-09T23:46:32.158Z,20.03
2018-06-09T23:49:00.863Z,20.07
2018-06-09T23:51:29.456Z,19.88
2018-06-09T23:53:58.008Z,19.63
2018-06-09T23:56:27.435Z,19.43
2018-06-09T23:58:56.020Z,19.32
